sensor_id;sensor_type;location;lat;lon;timestamp;temperature;humidity
78536;SHT31;67829;51.968;5.684;2023-04-03T00:01:28;6.5;55.1
78536;SHT31;67829;51.968;5.684;2023-04-03T00:03:57;6.5;55.1
78536;SHT31;67829;51.968;5.684;2023-04-03T00:06:26;6.4;55.2
78536;SHT31;67829;51.968;5.684;2023-04-03T00:08:57;6.4;55.3
78536;SHT31;67829;51.968;5.684;2023-04-03T00:11:26;6.4;55.2
78536;SHT31;67829;51.968;5.684;2023-04-03T00:13:54;6.4;55.1
78536;SHT31;67829;51.968;5.684;2023-04-03T00:16:23;6.3;55.2
78536;SHT31;67829;51.968;5.684;2023-04-03T00:18:53;6.3;55.2
78536;SHT31;67829;51.968;5.684;2023-04-03T00:21:22;6.3;55.5
78536;SHT31;67829;51.968;5.684;2023-04-03T00:23:51;6.3;55.5
78536;SHT31;67829;51.968;5.684;2023-04-03T00:26:19;6.2;55.4
78536;SHT31;67829;51.968;5.684;2023-04-03T00:28:49;6.2;55.6
78536;SHT31;67829;51.968;5.684;2023-04-03T00:31:19;6.2;55.4
78536;SHT31;67829;51.968;5.684;2023-04-03T00:33:48;6.2;55.3
78536;SHT31;67829;51.968;5.684;2023-04-03T00:36:16;6.2;55.4
78536;SHT31;67829;51.968;5.684;2023-04-03T00:38:45;6.1;55.3
78536;SHT31;67829;51.968;5.684;2023-04-03T00:41:14;6.1;55.4
78536;SHT31;67829;51.968;5.684;2023-04-03T00:43:42;6.1;55.7
78536;SHT31;67829;51.968;5.684;2023-04-03T00:46:11;6.1;55.8
78536;SHT31;67829;51.968;5.684;2023-04-03T00:48:42;6.0;55.8
78536;SHT31;67829;51.968;5.684;2023-04-03T00:51:14;6.0;55.9
78536;SHT31;67829;51.968;5.684;2023-04-03T00:53:48;6.0;56.0
78536;SHT31;67829;51.968;5.684;2023-04-03T00:56:20;6.0;56.0
78536;SHT31;67829;51.968;5.684;2023-04-03T00:58:54;6.0;56.0
78536;SHT31;67829;51.968;5.684;2023-04-03T01:01:26;5.9;56.2
78536;SHT31;67829;51.968;5.684;2023-04-03T01:03:56;5.9;56.2
78536;SHT31;67829;51.968;5.684;2023-04-03T01:06:28;5.9;56.2
78536;SHT31;67829;51.968;5.684;2023-04-03T01:09:00;5.9;56.2
78536;SHT31;67829;51.968;5.684;2023-04-03T01:11:29;5.9;56.5
78536;SHT31;67829;51.968;5.684;2023-04-03T01:13:58;5.8;56.5
78536;SHT31;67829;51.968;5.684;2023-04-03T01:16:28;5.8;56.5
78536;SHT31;67829;51.968;5.684;2023-04-03T01:19:00;5.8;56.6
78536;SHT31;67829;51.968;5.684;2023-04-03T01:22:01;5.8;56.8
78536;SHT31;67829;51.968;5.684;2023-04-03T01:24:35;5.8;56.8
78536;SHT31;67829;51.968;5.684;2023-04-03T01:27:08;5.7;57.0
78536;SHT31;67829;51.968;5.684;2023-04-03T01:29:40;5.7;57.1
78536;SHT31;67829;51.968;5.684;2023-04-03T01:32:09;5.7;57.2
78536;SHT31;67829;51.968;5.684;2023-04-03T01:34:40;5.7;57.3
78536;SHT31;67829;51.968;5.684;2023-04-03T01:37:08;5.7;57.4
78536;SHT31;67829;51.968;5.684;2023-04-03T01:39:37;5.7;57.5
78536;SHT31;67829;51.968;5.684;2023-04-03T01:42:06;5.6;57.6
78536;SHT31;67829;51.968;5.684;2023-04-03T01:44:34;5.6;57.7
78536;SHT31;67829;51.968;5.684;2023-04-03T01:47:05;5.6;57.9
78536;SHT31;67829;51.968;5.684;2023-04-03T01:49:34;5.6;58.0
78536;SHT31;67829;51.968;5.684;2023-04-03T01:52:03;5.6;58.1
78536;SHT31;67829;51.968;5.684;2023-04-03T01:54:31;5.5;58.3
78536;SHT31;67829;51.968;5.684;2023-04-03T01:57:00;5.5;58.3
78536;SHT31;67829;51.968;5.684;2023-04-03T01:59:29;5.5;58.3
78536;SHT31;67829;51.968;5.684;2023-04-03T02:01:57;5.5;58.5
78536;SHT31;67829;51.968;5.684;2023-04-03T02:04:26;5.5;58.6
78536;SHT31;67829;51.968;5.684;2023-04-03T02:06:54;5.5;58.7
78536;SHT31;67829;51.968;5.684;2023-04-03T02:09:23;5.5;58.7
78536;SHT31;67829;51.968;5.684;2023-04-03T02:11:52;5.4;58.8
78536;SHT31;67829;51.968;5.684;2023-04-03T02:14:21;5.4;58.9
78536;SHT31;67829;51.968;5.684;2023-04-03T02:16:50;5.4;59.1
78536;SHT31;67829;51.968;5.684;2023-04-03T02:19:19;5.4;59.3
78536;SHT31;67829;51.968;5.684;2023-04-03T02:21:47;5.4;59.5
78536;SHT31;67829;51.968;5.684;2023-04-03T02:24:16;5.4;59.5
78536;SHT31;67829;51.968;5.684;2023-04-03T02:26:44;5.3;59.6
78536;SHT31;67829;51.968;5.684;2023-04-03T02:29:13;5.3;59.8
78536;SHT31;67829;51.968;5.684;2023-04-03T02:31:41;5.3;59.8
78536;SHT31;67829;51.968;5.684;2023-04-03T02:34:10;5.3;60.2
78536;SHT31;67829;51.968;5.684;2023-04-03T02:36:38;5.3;60.2
78536;SHT31;67829;51.968;5.684;2023-04-03T02:39:07;5.3;60.2
78536;SHT31;67829;51.968;5.684;2023-04-03T02:41:36;5.3;60.3
78536;SHT31;67829;51.968;5.684;2023-04-03T02:44:09;5.2;60.3
78536;SHT31;67829;51.968;5.684;2023-04-03T02:46:37;5.2;60.5
78536;SHT31;67829;51.968;5.684;2023-04-03T02:49:06;5.2;60.6
78536;SHT31;67829;51.968;5.684;2023-04-03T02:51:37;5.2;60.7
78536;SHT31;67829;51.968;5.684;2023-04-03T02:54:08;5.2;60.7
78536;SHT31;67829;51.968;5.684;2023-04-03T02:56:37;5.2;60.8
78536;SHT31;67829;51.968;5.684;2023-04-03T02:59:07;5.2;60.9
78536;SHT31;67829;51.968;5.684;2023-04-03T03:01:38;5.1;60.9
78536;SHT31;67829;51.968;5.684;2023-04-03T03:04:06;5.1;61.0
78536;SHT31;67829;51.968;5.684;2023-04-03T03:06:35;5.1;61.1
78536;SHT31;67829;51.968;5.684;2023-04-03T03:09:04;5.1;61.1
78536;SHT31;67829;51.968;5.684;2023-04-03T03:11:32;5.1;61.1
78536;SHT31;67829;51.968;5.684;2023-04-03T03:14:01;5.1;61.2
78536;SHT31;67829;51.968;5.684;2023-04-03T03:16:30;5.0;61.3
78536;SHT31;67829;51.968;5.684;2023-04-03T03:18:59;5.0;61.3
78536;SHT31;67829;51.968;5.684;2023-04-03T03:21:27;5.0;61.4
78536;SHT31;67829;51.968;5.684;2023-04-03T03:23:56;5.0;61.4
78536;SHT31;67829;51.968;5.684;2023-04-03T03:26:25;5.0;61.5
78536;SHT31;67829;51.968;5.684;2023-04-03T03:28:53;5.0;61.6
78536;SHT31;67829;51.968;5.684;2023-04-03T03:31:22;4.9;61.8
78536;SHT31;67829;51.968;5.684;2023-04-03T03:33:51;4.9;61.9
78536;SHT31;67829;51.968;5.684;2023-04-03T03:36:19;4.9;62.1
78536;SHT31;67829;51.968;5.684;2023-04-03T03:38:48;4.9;62.2
78536;SHT31;67829;51.968;5.684;2023-04-03T03:41:17;4.9;62.4
78536;SHT31;67829;51.968;5.684;2023-04-03T03:43:45;4.8;62.5
78536;SHT31;67829;51.968;5.684;2023-04-03T03:46:14;4.8;62.7
78536;SHT31;67829;51.968;5.684;2023-04-03T03:48:42;4.8;62.8
78536;SHT31;67829;51.968;5.684;2023-04-03T03:51:11;4.8;62.9
78536;SHT31;67829;51.968;5.684;2023-04-03T03:53:39;4.8;63.1
78536;SHT31;67829;51.968;5.684;2023-04-03T03:56:08;4.7;63.1
78536;SHT31;67829;51.968;5.684;2023-04-03T03:58:37;4.7;63.1
78536;SHT31;67829;51.968;5.684;2023-04-03T04:01:06;4.7;63.1
78536;SHT31;67829;51.968;5.684;2023-04-03T04:03:37;4.7;63.1
78536;SHT31;67829;51.968;5.684;2023-04-03T04:06:06;4.7;63.2
78536;SHT31;67829;51.968;5.684;2023-04-03T04:08:35;4.7;63.3
78536;SHT31;67829;51.968;5.684;2023-04-03T04:11:03;4.7;63.5
78536;SHT31;67829;51.968;5.684;2023-04-03T04:13:32;4.6;63.4
78536;SHT31;67829;51.968;5.684;2023-04-03T04:16:00;4.6;63.5
78536;SHT31;67829;51.968;5.684;2023-04-03T04:18:29;4.6;63.6
78536;SHT31;67829;51.968;5.684;2023-04-03T04:20:57;4.6;63.7
78536;SHT31;67829;51.968;5.684;2023-04-03T04:23:26;4.6;63.8
78536;SHT31;67829;51.968;5.684;2023-04-03T04:25:55;4.5;63.8
78536;SHT31;67829;51.968;5.684;2023-04-03T04:28:25;4.5;63.9
78536;SHT31;67829;51.968;5.684;2023-04-03T04:30:56;4.5;64.0
78536;SHT31;67829;51.968;5.684;2023-04-03T04:33:24;4.5;64.0
78536;SHT31;67829;51.968;5.684;2023-04-03T04:35:52;4.4;64.1
78536;SHT31;67829;51.968;5.684;2023-04-03T04:38:21;4.4;64.2
78536;SHT31;67829;51.968;5.684;2023-04-03T04:40:50;4.4;64.2
78536;SHT31;67829;51.968;5.684;2023-04-03T04:43:18;4.4;64.3
78536;SHT31;67829;51.968;5.684;2023-04-03T04:45:47;4.3;64.3
78536;SHT31;67829;51.968;5.684;2023-04-03T04:48:16;4.3;64.5
78536;SHT31;67829;51.968;5.684;2023-04-03T04:50:44;4.3;64.5
78536;SHT31;67829;51.968;5.684;2023-04-03T04:53:14;4.3;64.7
78536;SHT31;67829;51.968;5.684;2023-04-03T04:55:42;4.3;64.9
78536;SHT31;67829;51.968;5.684;2023-04-03T04:58:11;4.2;64.9
78536;SHT31;67829;51.968;5.684;2023-04-03T05:00:39;4.2;64.9
78536;SHT31;67829;51.968;5.684;2023-04-03T05:03:08;4.2;65.1
78536;SHT31;67829;51.968;5.684;2023-04-03T05:05:36;4.2;65.1
78536;SHT31;67829;51.968;5.684;2023-04-03T05:08:05;4.1;65.3
78536;SHT31;67829;51.968;5.684;2023-04-03T05:10:34;4.1;65.3
78536;SHT31;67829;51.968;5.684;2023-04-03T05:13:03;4.1;65.3
78536;SHT31;67829;51.968;5.684;2023-04-03T05:15:31;4.1;65.3
78536;SHT31;67829;51.968;5.684;2023-04-03T05:18:00;4.1;65.4
78536;SHT31;67829;51.968;5.684;2023-04-03T05:20:28;4.0;65.3
78536;SHT31;67829;51.968;5.684;2023-04-03T05:22:57;4.0;65.4
78536;SHT31;67829;51.968;5.684;2023-04-03T05:25:26;4.0;65.5
78536;SHT31;67829;51.968;5.684;2023-04-03T05:27:55;4.0;65.5
78536;SHT31;67829;51.968;5.684;2023-04-03T05:30:24;4.0;65.5
78536;SHT31;67829;51.968;5.684;2023-04-03T05:32:52;4.0;65.6
78536;SHT31;67829;51.968;5.684;2023-04-03T05:35:21;3.9;65.6
78536;SHT31;67829;51.968;5.684;2023-04-03T05:37:49;3.9;65.5
78536;SHT31;67829;51.968;5.684;2023-04-03T05:40:18;3.9;65.5
78536;SHT31;67829;51.968;5.684;2023-04-03T05:42:47;3.9;65.6
78536;SHT31;67829;51.968;5.684;2023-04-03T05:45:15;3.9;65.6
78536;SHT31;67829;51.968;5.684;2023-04-03T05:47:44;3.9;65.7
78536;SHT31;67829;51.968;5.684;2023-04-03T05:50:14;3.9;65.4
78536;SHT31;67829;51.968;5.684;2023-04-03T05:52:45;3.9;65.4
78536;SHT31;67829;51.968;5.684;2023-04-03T05:55:14;3.9;65.5
78536;SHT31;67829;51.968;5.684;2023-04-03T05:57:42;3.9;65.6
78536;SHT31;67829;51.968;5.684;2023-04-03T06:00:14;3.9;65.5
78536;SHT31;67829;51.968;5.684;2023-04-03T06:02:45;3.9;65.3
78536;SHT31;67829;51.968;5.684;2023-04-03T06:05:14;3.9;65.5
78536;SHT31;67829;51.968;5.684;2023-04-03T06:07:43;3.9;65.4
78536;SHT31;67829;51.968;5.684;2023-04-03T06:10:13;3.9;65.3
78536;SHT31;67829;51.968;5.684;2023-04-03T06:12:41;3.9;65.2
78536;SHT31;67829;51.968;5.684;2023-04-03T06:15:10;4.0;65.2
78536;SHT31;67829;51.968;5.684;2023-04-03T06:17:40;4.0;65.2
78536;SHT31;67829;51.968;5.684;2023-04-03T06:20:10;4.0;65.1
78536;SHT31;67829;51.968;5.684;2023-04-03T06:22:39;4.0;64.9
78536;SHT31;67829;51.968;5.684;2023-04-03T06:25:09;4.1;65.0
78536;SHT31;67829;51.968;5.684;2023-04-03T06:27:38;4.1;65.1
78536;SHT31;67829;51.968;5.684;2023-04-03T06:30:08;4.1;64.7
78536;SHT31;67829;51.968;5.684;2023-04-03T06:32:37;4.2;65.0
78536;SHT31;67829;51.968;5.684;2023-04-03T06:35:07;4.2;64.7
78536;SHT31;67829;51.968;5.684;2023-04-03T06:37:37;4.3;64.2
78536;SHT31;67829;51.968;5.684;2023-04-03T06:40:06;4.3;64.2
78536;SHT31;67829;51.968;5.684;2023-04-03T06:42:35;4.3;63.9
78536;SHT31;67829;51.968;5.684;2023-04-03T06:45:04;4.4;64.2
78536;SHT31;67829;51.968;5.684;2023-04-03T06:47:34;4.4;63.8
78536;SHT31;67829;51.968;5.684;2023-04-03T06:50:03;4.5;63.6
78536;SHT31;67829;51.968;5.684;2023-04-03T06:52:32;4.5;63.3
78536;SHT31;67829;51.968;5.684;2023-04-03T06:55:01;4.6;63.3
78536;SHT31;67829;51.968;5.684;2023-04-03T06:57:30;4.6;63.1
78536;SHT31;67829;51.968;5.684;2023-04-03T06:59:58;4.7;62.8
78536;SHT31;67829;51.968;5.684;2023-04-03T07:02:27;4.7;62.5
78536;SHT31;67829;51.968;5.684;2023-04-03T07:04:55;4.7;62.3
78536;SHT31;67829;51.968;5.684;2023-04-03T07:07:25;4.8;62.2
78536;SHT31;67829;51.968;5.684;2023-04-03T07:09:54;4.8;62.1
78536;SHT31;67829;51.968;5.684;2023-04-03T07:12:22;4.9;61.4
78536;SHT31;67829;51.968;5.684;2023-04-03T07:14:51;5.0;60.9
78536;SHT31;67829;51.968;5.684;2023-04-03T07:17:20;5.0;60.9
78536;SHT31;67829;51.968;5.684;2023-04-03T07:19:49;5.1;60.8
78536;SHT31;67829;51.968;5.684;2023-04-03T07:22:18;5.1;60.6
78536;SHT31;67829;51.968;5.684;2023-04-03T07:24:46;5.2;60.3
78536;SHT31;67829;51.968;5.684;2023-04-03T07:27:15;5.3;60.0
78536;SHT31;67829;51.968;5.684;2023-04-03T07:29:43;5.3;59.4
78536;SHT31;67829;51.968;5.684;2023-04-03T07:32:14;5.4;59.1
78536;SHT31;67829;51.968;5.684;2023-04-03T07:34:44;5.5;57.8
78536;SHT31;67829;51.968;5.684;2023-04-03T07:37:12;5.6;57.7
78536;SHT31;67829;51.968;5.684;2023-04-03T07:39:43;5.6;57.3
78536;SHT31;67829;51.968;5.684;2023-04-03T07:42:12;5.7;57.4
78536;SHT31;67829;51.968;5.684;2023-04-03T07:44:40;5.8;55.2
78536;SHT31;67829;51.968;5.684;2023-04-03T07:47:09;5.8;56.0
78536;SHT31;67829;51.968;5.684;2023-04-03T07:49:37;5.9;55.3
78536;SHT31;67829;51.968;5.684;2023-04-03T07:52:07;5.9;54.9
78536;SHT31;67829;51.968;5.684;2023-04-03T07:54:35;6.0;54.8
78536;SHT31;67829;51.968;5.684;2023-04-03T07:57:04;6.1;53.9
78536;SHT31;67829;51.968;5.684;2023-04-03T07:59:33;6.1;53.7
78536;SHT31;67829;51.968;5.684;2023-04-03T08:02:02;6.2;53.2
78536;SHT31;67829;51.968;5.684;2023-04-03T08:04:31;6.2;51.6
78536;SHT31;67829;51.968;5.684;2023-04-03T08:07:00;6.3;50.9
78536;SHT31;67829;51.968;5.684;2023-04-03T08:09:28;6.4;52.0
78536;SHT31;67829;51.968;5.684;2023-04-03T08:11:57;6.4;50.7
78536;SHT31;67829;51.968;5.684;2023-04-03T08:14:27;6.5;49.7
78536;SHT31;67829;51.968;5.684;2023-04-03T08:17:00;6.6;48.5
78536;SHT31;67829;51.968;5.684;2023-04-03T08:19:31;6.7;46.8
78536;SHT31;67829;51.968;5.684;2023-04-03T08:21:59;6.7;46.5
78536;SHT31;67829;51.968;5.684;2023-04-03T08:24:29;6.8;48.4
78536;SHT31;67829;51.968;5.684;2023-04-03T08:26:57;6.9;47.1
78536;SHT31;67829;51.968;5.684;2023-04-03T08:29:26;7.0;46.6
78536;SHT31;67829;51.968;5.684;2023-04-03T08:31:55;7.1;44.9
78536;SHT31;67829;51.968;5.684;2023-04-03T08:34:24;7.2;44.2
78536;SHT31;67829;51.968;5.684;2023-04-03T08:36:53;7.4;44.7
78536;SHT31;67829;51.968;5.684;2023-04-03T08:39:22;7.5;42.0
78536;SHT31;67829;51.968;5.684;2023-04-03T08:41:50;7.6;39.5
78536;SHT31;67829;51.968;5.684;2023-04-03T08:44:25;7.7;38.1
78536;SHT31;67829;51.968;5.684;2023-04-03T08:47:04;7.7;38.6
78536;SHT31;67829;51.968;5.684;2023-04-03T08:49:40;7.8;34.9
78536;SHT31;67829;51.968;5.684;2023-04-03T08:52:16;7.8;33.2
78536;SHT31;67829;51.968;5.684;2023-04-03T08:54:53;7.8;36.7
78536;SHT31;67829;51.968;5.684;2023-04-03T08:57:29;7.8;37.9
78536;SHT31;67829;51.968;5.684;2023-04-03T09:00:02;7.9;39.3
78536;SHT31;67829;51.968;5.684;2023-04-03T09:02:34;7.9;34.5
78536;SHT31;67829;51.968;5.684;2023-04-03T09:05:14;8.0;35.5
78536;SHT31;67829;51.968;5.684;2023-04-03T09:07:46;8.0;32.8
78536;SHT31;67829;51.968;5.684;2023-04-03T09:10:26;8.0;33.5
78536;SHT31;67829;51.968;5.684;2023-04-03T09:13:03;8.1;31.8
78536;SHT31;67829;51.968;5.684;2023-04-03T09:15:34;8.1;32.2
78536;SHT31;67829;51.968;5.684;2023-04-03T09:18:08;8.1;33.0
78536;SHT31;67829;51.968;5.684;2023-04-03T09:20:45;8.1;33.2
78536;SHT31;67829;51.968;5.684;2023-04-03T09:23:19;8.2;32.0
78536;SHT31;67829;51.968;5.684;2023-04-03T09:25:54;8.2;32.2
78536;SHT31;67829;51.968;5.684;2023-04-03T09:28:25;8.2;28.8
78536;SHT31;67829;51.968;5.684;2023-04-03T09:30:53;8.2;27.9
78536;SHT31;67829;51.968;5.684;2023-04-03T09:33:23;8.3;28.5
78536;SHT31;67829;51.968;5.684;2023-04-03T09:35:51;8.3;31.0
78536;SHT31;67829;51.968;5.684;2023-04-03T09:38:21;8.3;30.9
78536;SHT31;67829;51.968;5.684;2023-04-03T09:41:04;8.4;31.6
78536;SHT31;67829;51.968;5.684;2023-04-03T09:43:35;8.4;29.1
78536;SHT31;67829;51.968;5.684;2023-04-03T09:46:28;8.4;28.4
78536;SHT31;67829;51.968;5.684;2023-04-03T09:49:00;8.4;28.8
78536;SHT31;67829;51.968;5.684;2023-04-03T09:51:29;8.5;30.2
78536;SHT31;67829;51.968;5.684;2023-04-03T09:53:58;8.5;30.8
78536;SHT31;67829;51.968;5.684;2023-04-03T09:56:30;8.5;28.1
78536;SHT31;67829;51.968;5.684;2023-04-03T09:59:15;8.6;27.7
78536;SHT31;67829;51.968;5.684;2023-04-03T10:01:58;8.6;28.5
78536;SHT31;67829;51.968;5.684;2023-04-03T10:04:40;8.6;29.9
78536;SHT31;67829;51.968;5.684;2023-04-03T10:07:31;8.7;29.5
78536;SHT31;67829;51.968;5.684;2023-04-03T10:10:02;8.7;29.3
78536;SHT31;67829;51.968;5.684;2023-04-03T10:12:31;8.7;30.3
78536;SHT31;67829;51.968;5.684;2023-04-03T10:15:00;8.8;31.1
78536;SHT31;67829;51.968;5.684;2023-04-03T10:17:37;8.8;30.9
78536;SHT31;67829;51.968;5.684;2023-04-03T10:20:24;8.9;29.6
78536;SHT31;67829;51.968;5.684;2023-04-03T10:23:05;8.9;28.8
78536;SHT31;67829;51.968;5.684;2023-04-03T10:25:41;8.9;28.8
78536;SHT31;67829;51.968;5.684;2023-04-03T10:28:21;8.9;29.1
78536;SHT31;67829;51.968;5.684;2023-04-03T10:31:00;9.0;29.6
78536;SHT31;67829;51.968;5.684;2023-04-03T10:33:41;9.0;31.6
78536;SHT31;67829;51.968;5.684;2023-04-03T10:36:23;9.0;30.8
78536;SHT31;67829;51.968;5.684;2023-04-03T10:39:04;9.1;30.4
78536;SHT31;67829;51.968;5.684;2023-04-03T10:41:50;9.1;30.5
78536;SHT31;67829;51.968;5.684;2023-04-03T10:44:31;9.2;30.6
78536;SHT31;67829;51.968;5.684;2023-04-03T10:47:10;9.2;29.8
78536;SHT31;67829;51.968;5.684;2023-04-03T10:49:47;9.3;30.2
78536;SHT31;67829;51.968;5.684;2023-04-03T10:52:22;9.3;32.5
78536;SHT31;67829;51.968;5.684;2023-04-03T10:55:04;9.3;31.2
78536;SHT31;67829;51.968;5.684;2023-04-03T10:57:36;9.4;33.0
78536;SHT31;67829;51.968;5.684;2023-04-03T11:00:16;9.4;30.0
78536;SHT31;67829;51.968;5.684;2023-04-03T11:02:51;9.4;31.7
78536;SHT31;67829;51.968;5.684;2023-04-03T11:05:31;9.4;31.8
78536;SHT31;67829;51.968;5.684;2023-04-03T11:08:07;9.5;31.3
78536;SHT31;67829;51.968;5.684;2023-04-03T11:10:42;9.5;31.0
78536;SHT31;67829;51.968;5.684;2023-04-03T11:13:18;9.5;31.0
78536;SHT31;67829;51.968;5.684;2023-04-03T11:15:53;9.5;31.0
78536;SHT31;67829;51.968;5.684;2023-04-03T11:18:26;9.6;31.8
78536;SHT31;67829;51.968;5.684;2023-04-03T11:21:02;9.6;31.4
78536;SHT31;67829;51.968;5.684;2023-04-03T11:23:35;9.7;31.8
78536;SHT31;67829;51.968;5.684;2023-04-03T11:26:11;9.7;33.0
78536;SHT31;67829;51.968;5.684;2023-04-03T11:28:41;9.7;32.3
78536;SHT31;67829;51.968;5.684;2023-04-03T11:31:29;9.8;32.2
78536;SHT31;67829;51.968;5.684;2023-04-03T11:34:10;9.8;31.1
78536;SHT31;67829;51.968;5.684;2023-04-03T11:36:45;9.9;31.3
78536;SHT31;67829;51.968;5.684;2023-04-03T11:39:22;9.9;31.1
78536;SHT31;67829;51.968;5.684;2023-04-03T11:41:52;9.9;30.8
78536;SHT31;67829;51.968;5.684;2023-04-03T11:44:39;9.9;32.2
78536;SHT31;67829;51.968;5.684;2023-04-03T11:47:09;10.0;32.0
78536;SHT31;67829;51.968;5.684;2023-04-03T11:49:55;10.0;31.6
78536;SHT31;67829;51.968;5.684;2023-04-03T11:52:59;10.1;31.1
78536;SHT31;67829;51.968;5.684;2023-04-03T11:55:52;10.1;29.5
78536;SHT31;67829;51.968;5.684;2023-04-03T11:58:22;10.2;29.9
78536;SHT31;67829;51.968;5.684;2023-04-03T12:01:10;10.2;30.4
78536;SHT31;67829;51.968;5.684;2023-04-03T12:04:08;10.3;30.8
78536;SHT31;67829;51.968;5.684;2023-04-03T12:06:50;10.3;32.1
78536;SHT31;67829;51.968;5.684;2023-04-03T12:09:26;10.4;31.6
78536;SHT31;67829;51.968;5.684;2023-04-03T12:11:59;10.4;30.0
78536;SHT31;67829;51.968;5.684;2023-04-03T12:14:29;10.5;30.3
78536;SHT31;67829;51.968;5.684;2023-04-03T12:16:58;10.5;32.5
78536;SHT31;67829;51.968;5.684;2023-04-03T12:19:38;10.5;30.0
78536;SHT31;67829;51.968;5.684;2023-04-03T12:22:14;10.6;31.0
78536;SHT31;67829;51.968;5.684;2023-04-03T12:24:47;10.6;30.1
78536;SHT31;67829;51.968;5.684;2023-04-03T12:27:30;10.6;30.5
78536;SHT31;67829;51.968;5.684;2023-04-03T12:30:23;10.7;29.5
78536;SHT31;67829;51.968;5.684;2023-04-03T12:33:12;10.7;32.4
78536;SHT31;67829;51.968;5.684;2023-04-03T12:35:57;10.7;31.0
78536;SHT31;67829;51.968;5.684;2023-04-03T12:38:44;10.8;31.7
78536;SHT31;67829;51.968;5.684;2023-04-03T12:41:25;10.8;29.8
78536;SHT31;67829;51.968;5.684;2023-04-03T12:44:17;10.8;31.3
78536;SHT31;67829;51.968;5.684;2023-04-03T12:46:52;10.8;31.4
78536;SHT31;67829;51.968;5.684;2023-04-03T12:49:35;10.9;30.3
78536;SHT31;67829;51.968;5.684;2023-04-03T12:52:06;10.9;31.2
78536;SHT31;67829;51.968;5.684;2023-04-03T12:54:40;10.9;30.8
78536;SHT31;67829;51.968;5.684;2023-04-03T12:57:18;10.9;32.3
78536;SHT31;67829;51.968;5.684;2023-04-03T12:59:47;11.0;30.5
78536;SHT31;67829;51.968;5.684;2023-04-03T13:02:25;11.0;31.3
78536;SHT31;67829;51.968;5.684;2023-04-03T13:04:57;11.0;32.5
78536;SHT31;67829;51.968;5.684;2023-04-03T13:07:29;11.0;32.2
78536;SHT31;67829;51.968;5.684;2023-04-03T13:10:03;11.0;32.1
78536;SHT31;67829;51.968;5.684;2023-04-03T13:12:34;11.0;33.2
78536;SHT31;67829;51.968;5.684;2023-04-03T13:15:14;11.1;30.9
78536;SHT31;67829;51.968;5.684;2023-04-03T13:17:44;11.1;30.7
78536;SHT31;67829;51.968;5.684;2023-04-03T13:20:19;11.1;30.4
78536;SHT31;67829;51.968;5.684;2023-04-03T13:22:53;11.1;29.1
78536;SHT31;67829;51.968;5.684;2023-04-03T13:25:24;11.1;30.8
78536;SHT31;67829;51.968;5.684;2023-04-03T13:27:56;11.1;32.4
78536;SHT31;67829;51.968;5.684;2023-04-03T13:30:29;11.1;31.0
78536;SHT31;67829;51.968;5.684;2023-04-03T13:33:01;11.1;30.3
78536;SHT31;67829;51.968;5.684;2023-04-03T13:35:34;11.1;31.4
78536;SHT31;67829;51.968;5.684;2023-04-03T13:38:06;11.2;30.9
78536;SHT31;67829;51.968;5.684;2023-04-03T13:40:49;11.2;32.3
78536;SHT31;67829;51.968;5.684;2023-04-03T13:43:21;11.2;31.6
78536;SHT31;67829;51.968;5.684;2023-04-03T13:45:59;11.2;30.5
78536;SHT31;67829;51.968;5.684;2023-04-03T13:48:38;11.2;29.9
78536;SHT31;67829;51.968;5.684;2023-04-03T13:51:19;11.2;30.9
78536;SHT31;67829;51.968;5.684;2023-04-03T13:53:51;11.2;30.5
78536;SHT31;67829;51.968;5.684;2023-04-03T13:56:29;11.2;32.2
78536;SHT31;67829;51.968;5.684;2023-04-03T13:59:03;11.2;31.3
78536;SHT31;67829;51.968;5.684;2023-04-03T14:01:40;11.2;31.3
78536;SHT31;67829;51.968;5.684;2023-04-03T14:04:15;11.3;30.3
78536;SHT31;67829;51.968;5.684;2023-04-03T14:06:44;11.3;29.8
78536;SHT31;67829;51.968;5.684;2023-04-03T14:09:13;11.3;30.6
78536;SHT31;67829;51.968;5.684;2023-04-03T14:11:42;11.3;30.5
78536;SHT31;67829;51.968;5.684;2023-04-03T14:14:15;11.3;29.9
78536;SHT31;67829;51.968;5.684;2023-04-03T14:16:47;11.3;31.7
78536;SHT31;67829;51.968;5.684;2023-04-03T14:19:22;11.3;31.1
78536;SHT31;67829;51.968;5.684;2023-04-03T14:21:52;11.3;31.6
78536;SHT31;67829;51.968;5.684;2023-04-03T14:24:22;11.3;31.2
78536;SHT31;67829;51.968;5.684;2023-04-03T14:26:53;11.3;32.4
78536;SHT31;67829;51.968;5.684;2023-04-03T14:29:22;11.3;33.6
78536;SHT31;67829;51.968;5.684;2023-04-03T14:31:51;11.4;32.8
78536;SHT31;67829;51.968;5.684;2023-04-03T14:34:20;11.4;33.2
78536;SHT31;67829;51.968;5.684;2023-04-03T14:36:48;11.4;33.7
78536;SHT31;67829;51.968;5.684;2023-04-03T14:39:18;11.4;33.3
78536;SHT31;67829;51.968;5.684;2023-04-03T14:41:47;11.5;33.3
78536;SHT31;67829;51.968;5.684;2023-04-03T14:44:16;11.5;33.3
78536;SHT31;67829;51.968;5.684;2023-04-03T14:46:45;11.5;32.6
78536;SHT31;67829;51.968;5.684;2023-04-03T14:49:18;11.5;33.0
78536;SHT31;67829;51.968;5.684;2023-04-03T14:51:47;11.5;33.2
78536;SHT31;67829;51.968;5.684;2023-04-03T14:54:19;11.5;33.3
78536;SHT31;67829;51.968;5.684;2023-04-03T14:56:52;11.5;31.9
78536;SHT31;67829;51.968;5.684;2023-04-03T14:59:23;11.5;33.8
78536;SHT31;67829;51.968;5.684;2023-04-03T15:01:52;11.5;33.8
78536;SHT31;67829;51.968;5.684;2023-04-03T15:04:21;11.5;33.4
78536;SHT31;67829;51.968;5.684;2023-04-03T15:06:51;11.5;33.8
78536;SHT31;67829;51.968;5.684;2023-04-03T15:09:22;11.5;32.0
78536;SHT31;67829;51.968;5.684;2023-04-03T15:11:53;11.5;33.2
78536;SHT31;67829;51.968;5.684;2023-04-03T15:14:22;11.5;33.7
78536;SHT31;67829;51.968;5.684;2023-04-03T15:16:53;11.5;33.5
78536;SHT31;67829;51.968;5.684;2023-04-03T15:19:23;11.5;33.5
78536;SHT31;67829;51.968;5.684;2023-04-03T15:21:52;11.5;33.6
78536;SHT31;67829;51.968;5.684;2023-04-03T15:24:20;11.5;34.2
78536;SHT31;67829;51.968;5.684;2023-04-03T15:26:49;11.5;34.2
78536;SHT31;67829;51.968;5.684;2023-04-03T15:29:17;11.5;33.6
78536;SHT31;67829;51.968;5.684;2023-04-03T15:31:46;11.5;33.5
78536;SHT31;67829;51.968;5.684;2023-04-03T15:34:16;11.5;33.1
78536;SHT31;67829;51.968;5.684;2023-04-03T15:36:44;11.4;33.5
78536;SHT31;67829;51.968;5.684;2023-04-03T15:39:13;11.4;33.1
78536;SHT31;67829;51.968;5.684;2023-04-03T15:41:42;11.4;34.6
78536;SHT31;67829;51.968;5.684;2023-04-03T15:44:14;11.4;34.2
78536;SHT31;67829;51.968;5.684;2023-04-03T15:46:46;11.4;33.3
78536;SHT31;67829;51.968;5.684;2023-04-03T15:49:16;11.4;34.1
78536;SHT31;67829;51.968;5.684;2023-04-03T15:51:44;11.4;33.5
78536;SHT31;67829;51.968;5.684;2023-04-03T15:54:13;11.4;32.8
78536;SHT31;67829;51.968;5.684;2023-04-03T15:56:41;11.4;33.6
78536;SHT31;67829;51.968;5.684;2023-04-03T15:59:10;11.4;33.3
78536;SHT31;67829;51.968;5.684;2023-04-03T16:01:39;11.4;33.2
78536;SHT31;67829;51.968;5.684;2023-04-03T16:04:10;11.4;33.4
78536;SHT31;67829;51.968;5.684;2023-04-03T16:06:39;11.4;33.8
78536;SHT31;67829;51.968;5.684;2023-04-03T16:09:08;11.4;33.0
78536;SHT31;67829;51.968;5.684;2023-04-03T16:11:39;11.4;33.2
78536;SHT31;67829;51.968;5.684;2023-04-03T16:14:08;11.5;34.2
78536;SHT31;67829;51.968;5.684;2023-04-03T16:16:38;11.6;34.2
78536;SHT31;67829;51.968;5.684;2023-04-03T16:19:07;11.7;35.0
78536;SHT31;67829;51.968;5.684;2023-04-03T16:21:37;11.9;34.6
78536;SHT31;67829;51.968;5.684;2023-04-03T16:24:06;12.1;32.9
78536;SHT31;67829;51.968;5.684;2023-04-03T16:26:35;12.3;32.7
78536;SHT31;67829;51.968;5.684;2023-04-03T16:29:04;12.4;31.3
78536;SHT31;67829;51.968;5.684;2023-04-03T16:31:33;12.5;31.5
78536;SHT31;67829;51.968;5.684;2023-04-03T16:34:02;12.6;31.1
78536;SHT31;67829;51.968;5.684;2023-04-03T16:36:30;12.6;32.2
78536;SHT31;67829;51.968;5.684;2023-04-03T16:38:59;12.6;31.9
78536;SHT31;67829;51.968;5.684;2023-04-03T16:41:27;12.7;31.7